Time;durP1;ratioP1;P1;durP2;ratioP2;P2;SDS_P1;SDS_P2;PMS_P1;PMS_P2;Temp;Humidity;BMP_temperature;BMP_pressure;BME280_temperature;BME280_humidity;BME280_pressure;Samples;Min_cycle;Max_cycle;Signal;HPM_P1;HPM_P2
2022/12/17 13:06:04;;;;;;;0.00;0.00;;;-3.20;99.90;;;;;;5039684;28;20251;-65
2022/12/17 13:08:29;;;;;;;0.20;0.20;;;-3.20;99.90;;;;;;5053987;28;20205;-65
2022/12/17 13:10:55;;;;;;;0.30;0.30;;;-3.20;99.90;;;;;;5053724;28;20182;-65
2022/12/17 13:13:34;;;;;;;0.77;0.77;;;-3.30;99.90;;;;;;5054006;28;20176;-65
2022/12/17 13:16:19;;;;;;;0.53;0.53;;;-3.20;99.90;;;;;;5053891;28;20564;-65
2022/12/17 13:18:45;;;;;;;0.00;0.00;;;-3.20;99.90;;;;;;5053833;28;20185;-65
2022/12/17 13:21:13;;;;;;;0.10;0.10;;;-3.20;99.90;;;;;;5053616;28;20224;-65
2022/12/17 13:23:39;;;;;;;0.00;0.00;;;-3.30;99.90;;;;;;5053605;28;20583;-65
2022/12/17 13:26:40;;;;;;;0.30;0.30;;;-3.20;99.90;;;;;;5053508;28;20291;-65
2022/12/17 13:29:31;;;;;;;0.00;0.00;;;-3.20;99.90;;;;;;5053742;28;20191;-65
2022/12/17 13:32:02;;;;;;;0.00;0.00;;;-3.20;99.90;;;;;;5053488;28;20173;-65
2022/12/17 13:34:34;;;;;;;0.00;0.00;;;-3.30;99.90;;;;;;5033460;28;20182;-65
2022/12/17 13:37:47;;;;;;;0.20;0.20;;;-3.30;99.90;;;;;;5033489;28;20275;-65
2022/12/17 13:40:16;;;;;;;0.00;0.00;;;-3.30;99.90;;;;;;5041659;28;20211;-64
2022/12/17 13:42:44;;;;;;;0.00;0.00;;;-3.30;99.90;;;;;;5053330;28;20252;-65
2022/12/17 13:45:20;;;;;;;0.00;0.00;;;-3.30;99.90;;;;;;5053292;28;20174;-65
2022/12/17 13:47:52;;;;;;;0.10;0.10;;;-3.30;99.90;;;;;;5053229;28;20189;-65
2022/12/17 13:50:21;;;;;;;0.30;0.30;;;-3.30;99.90;;;;;;5053211;28;20170;-65
2022/12/17 13:52:47;;;;;;;0.40;0.40;;;-3.40;99.90;;;;;;5052962;28;20267;-65
2022/12/17 13:55:21;;;;;;;0.00;0.00;;;-3.40;99.90;;;;;;5053062;28;20617;-65
2022/12/17 13:57:49;;;;;;;0.00;0.00;;;-3.40;99.90;;;;;;5053012;28;20173;-65
2022/12/17 14:00:27;;;;;;;0.40;0.40;;;-3.50;99.90;;;;;;5053024;28;20219;-65
2022/12/17 14:02:53;;;;;;;0.00;0.00;;;-3.50;99.90;;;;;;5052754;28;20182;-65
2022/12/17 14:05:31;;;;;;;0.20;0.20;;;-3.50;99.90;;;;;;5052793;28;20181;-65
2022/12/17 14:08:01;;;;;;;0.00;0.00;;;-3.60;99.90;;;;;;5032845;28;20680;-65
2022/12/17 14:10:27;;;;;;;0.00;0.00;;;-3.60;99.90;;;;;;5032818;28;20709;-65
2022/12/17 14:13:09;;;;;;;0.20;0.20;;;-3.60;99.90;;;;;;5032271;28;20221;-65
2022/12/17 14:15:35;;;;;;;0.00;0.00;;;-3.50;99.90;;;;;;5044699;28;20536;-64
2022/12/17 14:18:02;;;;;;;0.43;0.43;;;-3.50;99.90;;;;;;5050097;28;20181;-65
2022/12/17 14:20:34;;;;;;;0.10;0.10;;;-3.50;99.90;;;;;;5051824;28;20193;-65
2022/12/17 14:23:05;;;;;;;0.10;0.10;;;-3.50;99.90;;;;;;5051956;28;20177;-64
2022/12/17 14:25:35;;;;;;;0.77;0.57;;;-3.50;99.90;;;;;;5051658;28;20177;-65
2022/12/17 14:28:31;;;;;;;0.40;0.40;;;-3.50;99.90;;;;;;5050452;28;20319;-65
2022/12/17 14:31:21;;;;;;;0.10;0.10;;;-3.50;99.90;;;;;;5043469;28;20185;-64
2022/12/17 14:33:58;;;;;;;0.13;0.13;;;-3.50;99.90;;;;;;5052131;28;20475;-65
2022/12/17 14:36:23;;;;;;;0.00;0.00;;;-3.50;99.90;;;;;;5052315;28;20181;-65
2022/12/17 14:38:58;;;;;;;0.00;0.00;;;-3.60;99.90;;;;;;5052101;28;20203;-65
2022/12/17 14:44:20;;;;;;;0.40;0.40;;;-3.60;99.90;;;;;;5052274;28;20265;-65
2022/12/17 14:46:46;;;;;;;0.10;0.10;;;-3.60;99.90;;;;;;5051807;28;20216;-65
2022/12/17 14:49:18;;;;;;;0.40;0.40;;;-3.60;99.90;;;;;;5053377;28;20533;-65
2022/12/17 14:51:44;;;;;;;0.73;0.73;;;-3.60;99.90;;;;;;5051966;28;20176;-65
2022/12/17 14:54:30;;;;;;;0.30;0.30;;;-3.60;99.90;;;;;;5052080;28;20170;-65
2022/12/17 14:56:58;;;;;;;0.60;0.60;;;-3.70;99.90;;;;;;5051926;28;20173;-65
2022/12/17 14:59:29;;;;;;;0.23;0.23;;;-3.70;99.90;;;;;;5051361;28;20637;-65
2022/12/17 15:01:54;;;;;;;0.30;0.30;;;-3.80;99.90;;;;;;5051588;28;20221;-65
2022/12/17 15:04:20;;;;;;;0.90;0.90;;;-3.80;99.90;;;;;;5051857;28;20204;-64
2022/12/17 15:06:46;;;;;;;0.00;0.00;;;-3.80;99.90;;;;;;5051369;28;20308;-65
2022/12/17 15:09:12;;;;;;;0.00;0.00;;;-3.90;99.90;;;;;;5051641;28;20232;-64
2022/12/17 15:11:38;;;;;;;0.00;0.00;;;-3.90;99.90;;;;;;5050384;28;20221;-65
2022/12/17 15:14:04;;;;;;;0.00;0.00;;;-3.90;99.90;;;;;;5051724;28;20185;-65
2022/12/17 15:16:29;;;;;;;0.30;0.30;;;-4.00;99.90;;;;;;5050360;28;20184;-65
2022/12/17 15:18:55;;;;;;;0.03;0.03;;;-4.00;99.90;;;;;;5051267;28;20205;-65
2022/12/17 15:21:21;;;;;;;0.30;0.30;;;-4.00;99.90;;;;;;5051195;28;20192;-65
2022/12/17 15:23:47;;;;;;;0.10;0.10;;;-4.10;99.90;;;;;;5050777;28;20663;-65
2022/12/17 15:26:14;;;;;;;0.00;0.00;;;-4.20;99.90;;;;;;5054574;28;20680;-65
2022/12/17 15:28:40;;;;;;;0.20;0.20;;;-4.20;99.90;;;;;;5055700;28;20181;-65
2022/12/17 15:31:08;;;;;;;0.67;0.67;;;-4.30;99.90;;;;;;5055728;28;20268;-65
2022/12/17 15:33:33;;;;;;;0.03;0.03;;;-4.30;99.90;;;;;;5043029;28;20192;-65
2022/12/17 15:35:59;;;;;;;0.93;0.93;;;-4.30;99.90;;;;;;5034410;28;20253;-65
2022/12/17 15:38:24;;;;;;;0.47;0.47;;;-4.40;99.90;;;;;;5035788;28;20182;-65
2022/12/17 15:40:50;;;;;;;0.10;0.10;;;-4.40;99.90;;;;;;5048894;28;20184;-65
2022/12/17 15:43:16;;;;;;;0.17;0.17;;;-4.40;99.90;;;;;;5055604;28;20200;-65
2022/12/17 15:45:47;;;;;;;0.50;0.40;;;-4.50;99.90;;;;;;5055589;28;20224;-65
2022/12/17 15:48:18;;;;;;;0.20;0.20;;;-4.50;99.90;;;;;;5055428;28;20177;-65
2022/12/17 15:50:44;;;;;;;0.13;0.13;;;-4.60;99.90;;;;;;5054691;28;20186;-65
2022/12/17 15:53:09;;;;;;;0.10;0.10;;;-4.60;99.90;;;;;;5054788;28;20235;-65
2022/12/17 15:55:36;;;;;;;0.07;0.07;;;-4.60;99.90;;;;;;5054800;28;20182;-65
2022/12/17 15:58:01;;;;;;;0.93;0.93;;;-4.70;99.90;;;;;;5054756;28;20185;-65
2022/12/17 16:00:27;;;;;;;0.10;0.10;;;-4.70;99.90;;;;;;5054982;28;20185;-65
2022/12/17 16:02:53;;;;;;;0.20;0.20;;;-4.70;99.90;;;;;;5055300;28;20528;-65
2022/12/17 16:05:19;;;;;;;0.00;0.00;;;-4.80;99.90;;;;;;5053994;28;20260;-65
2022/12/17 16:07:45;;;;;;;0.40;0.40;;;-4.80;99.90;;;;;;5054910;28;20347;-65
2022/12/17 16:10:12;;;;;;;0.43;0.43;;;-4.80;99.90;;;;;;5054982;28;20712;-65
2022/12/17 16:12:38;;;;;;;0.00;0.00;;;-4.80;99.90;;;;;;5054518;28;20240;-65
2022/12/17 16:15:04;;;;;;;0.60;0.60;;;-4.80;99.90;;;;;;5054970;28;20637;-65
2022/12/17 16:17:29;;;;;;;0.60;0.60;;;-4.80;99.90;;;;;;5054721;28;20181;-65
2022/12/17 16:19:55;;;;;;;0.00;0.00;;;-4.90;99.90;;;;;;5054314;28;20587;-65
2022/12/17 16:22:21;;;;;;;0.10;0.10;;;-4.90;99.90;;;;;;5054317;28;20656;-64
2022/12/17 16:24:46;;;;;;;0.10;0.10;;;-4.90;99.90;;;;;;5054122;28;20246;-65
2022/12/17 16:27:12;;;;;;;0.87;0.87;;;-4.90;99.90;;;;;;5053747;28;20688;-65
2022/12/17 16:29:38;;;;;;;0.17;0.17;;;-5.00;99.90;;;;;;5054121;28;20730;-65
2022/12/17 16:32:04;;;;;;;1.10;1.10;;;-5.00;99.90;;;;;;5054126;28;20276;-64
2022/12/17 16:34:29;;;;;;;0.47;0.47;;;-5.10;99.90;;;;;;5054387;28;20184;-64
2022/12/17 16:36:55;;;;;;;0.23;0.23;;;-5.10;99.90;;;;;;5053477;28;20187;-65
2022/12/17 16:39:20;;;;;;;0.20;0.20;;;-5.10;99.90;;;;;;5054612;28;20189;-65
2022/12/17 16:41:46;;;;;;;0.00;0.00;;;-5.20;99.90;;;;;;5054394;28;20178;-65
2022/12/17 16:44:12;;;;;;;0.00;0.00;;;-5.20;99.90;;;;;;5053414;28;20177;-65
2022/12/17 16:46:40;;;;;;;0.00;0.00;;;-5.20;99.90;;;;;;5054017;28;20209;-65
2022/12/17 16:49:10;;;;;;;0.73;0.50;;;-5.20;99.90;;;;;;5053876;28;20186;-64
2022/12/17 16:51:36;;;;;;;0.30;0.30;;;-5.20;99.90;;;;;;5052075;28;20340;-65
2022/12/17 16:54:06;;;;;;;0.20;0.20;;;-5.30;99.90;;;;;;5053931;28;20268;-65
2022/12/17 16:56:31;;;;;;;0.10;0.10;;;-5.30;99.90;;;;;;5053626;28;20181;-65
2022/12/17 16:58:57;;;;;;;0.27;0.20;;;-5.30;99.90;;;;;;5052935;28;20575;-65
2022/12/17 17:01:28;;;;;;;0.30;0.30;;;-5.40;99.90;;;;;;5053549;28;20181;-65
2022/12/17 17:03:54;;;;;;;2.43;0.83;;;-5.40;99.90;;;;;;5053330;28;20549;-65
2022/12/17 17:06:20;;;;;;;0.77;0.57;;;-5.40;99.90;;;;;;5053187;28;20213;-65
2022/12/17 17:08:46;;;;;;;0.10;0.10;;;-5.50;99.90;;;;;;5053110;28;20702;-65
2022/12/17 17:11:14;;;;;;;0.20;0.20;;;-5.50;99.90;;;;;;5053055;28;20559;-65
2022/12/17 17:13:40;;;;;;;0.20;0.20;;;-5.50;99.90;;;;;;5052085;28;20181;-65
2022/12/17 17:16:07;;;;;;;0.77;0.77;;;-5.50;99.90;;;;;;5052935;28;20193;-65
2022/12/17 17:18:33;;;;;;;0.10;0.10;;;-5.60;99.90;;;;;;5052263;28;20217;-65
2022/12/17 17:21:23;;;;;;;0.97;0.97;;;-5.60;99.90;;;;;;5052148;28;20169;-65
2022/12/17 17:23:52;;;;;;;0.00;0.00;;;-5.60;99.90;;;;;;5049675;28;20190;-65
2022/12/17 17:26:18;;;;;;;0.00;0.00;;;-5.60;99.90;;;;;;5052667;28;20308;-64
2022/12/17 17:28:45;;;;;;;1.07;0.73;;;-5.70;99.90;;;;;;5052962;28;20707;-65
2022/12/17 17:31:12;;;;;;;0.20;0.20;;;-5.70;99.90;;;;;;5052053;28;20174;-65
2022/12/17 17:33:41;;;;;;;0.67;0.67;;;-5.70;99.90;;;;;;5050753;28;20234;-65
2022/12/17 17:36:14;;;;;;;0.13;0.13;;;-5.80;99.90;;;;;;5052835;28;20189;-65
2022/12/17 17:38:40;;;;;;;0.00;0.00;;;-5.80;99.90;;;;;;5052595;28;20174;-65
2022/12/17 17:41:09;;;;;;;0.50;0.50;;;-5.90;99.90;;;;;;5052017;28;20570;-65
2022/12/17 17:43:35;;;;;;;1.33;1.23;;;-5.90;99.90;;;;;;5053022;28;20186;-65
2022/12/17 17:46:04;;;;;;;0.13;0.13;;;-5.90;99.90;;;;;;5052763;28;20563;-65
2022/12/17 17:48:32;;;;;;;0.87;0.87;;;-5.90;99.90;;;;;;5051650;28;20189;-65
2022/12/17 17:51:04;;;;;;;0.30;0.30;;;-5.90;99.90;;;;;;5053018;28;20181;-65
2022/12/17 17:53:29;;;;;;;0.57;0.57;;;-6.00;99.90;;;;;;5052849;28;20308;-65
2022/12/17 17:56:06;;;;;;;0.30;0.30;;;-5.90;99.90;;;;;;5053089;28;20213;-65
2022/12/17 17:58:32;;;;;;;2.17;1.03;;;-6.00;99.90;;;;;;5051825;28;20173;-65
2022/12/17 18:00:58;;;;;;;0.00;0.00;;;-6.00;99.90;;;;;;5052615;28;20181;-65
2022/12/17 18:03:24;;;;;;;0.00;0.00;;;-6.10;99.90;;;;;;5052979;28;20186;-64
2022/12/17 18:05:49;;;;;;;1.37;1.20;;;-6.10;99.90;;;;;;5052368;28;20541;-64
2022/12/17 18:08:15;;;;;;;0.07;0.07;;;-5.60;99.90;;;;;;5052628;28;20208;-64
2022/12/17 18:10:41;;;;;;;0.10;0.10;;;-5.40;99.90;;;;;;5051673;28;20211;-64
2022/12/17 18:15:51;;;;;;;0.10;0.10;;;-5.60;99.90;;;;;;5052038;28;20332;-64
2022/12/17 18:18:17;;;;;;;0.13;0.13;;;-5.70;99.90;;;;;;5051982;28;20178;-63
2022/12/17 18:20:42;;;;;;;0.03;0.03;;;-5.80;99.90;;;;;;5051633;28;20204;-64
2022/12/17 18:23:08;;;;;;;0.47;0.47;;;-5.90;99.90;;;;;;5052198;28;20548;-63
2022/12/17 18:25:34;;;;;;;0.07;0.07;;;-6.00;99.90;;;;;;5051912;28;20231;-63
2022/12/17 18:27:59;;;;;;;0.13;0.13;;;-6.10;99.90;;;;;;5052153;28;20605;-63
2022/12/17 18:30:25;;;;;;;0.40;0.40;;;-6.10;99.90;;;;;;5050501;28;20185;-61
2022/12/17 18:32:50;;;;;;;0.10;0.10;;;-6.20;99.90;;;;;;5050540;28;20178;-63
2022/12/17 18:35:16;;;;;;;0.10;0.10;;;-6.20;99.90;;;;;;5052000;28;20189;-63
2022/12/17 18:37:41;;;;;;;0.33;0.33;;;-6.20;99.90;;;;;;5051782;28;20192;-62
2022/12/17 18:40:08;;;;;;;0.17;0.17;;;-6.20;99.90;;;;;;5052295;28;20641;-62
2022/12/17 18:45:18;;;;;;;0.10;0.10;;;-6.30;99.90;;;;;;5051401;28;20199;-63
2022/12/17 18:47:43;;;;;;;0.73;0.73;;;-6.40;99.90;;;;;;5051971;28;20213;-63
2022/12/17 18:50:11;;;;;;;0.30;0.30;;;-6.50;99.90;;;;;;5051820;28;20178;-63
2022/12/17 18:52:37;;;;;;;0.00;0.00;;;-6.50;99.90;;;;;;5051782;28;20181;-63
2022/12/17 18:55:02;;;;;;;0.10;0.10;;;-6.50;99.90;;;;;;5051542;28;20668;-62
2022/12/17 18:57:28;;;;;;;0.07;0.07;;;-6.50;99.90;;;;;;5051255;28;20260;-63
2022/12/17 18:59:53;;;;;;;1.23;0.70;;;-6.60;99.90;;;;;;5050075;28;20263;-63
2022/12/17 19:02:19;;;;;;;0.60;0.60;;;-6.60;99.90;;;;;;5051563;28;20182;-63
2022/12/17 19:04:44;;;;;;;0.63;0.63;;;-6.60;99.90;;;;;;5044878;28;20188;-62
2022/12/17 19:07:10;;;;;;;0.13;0.13;;;-6.60;99.90;;;;;;5049195;28;20222;-62
2022/12/17 19:09:37;;;;;;;2.00;1.87;;;-6.60;99.90;;;;;;5051079;28;20181;-63
2022/12/17 19:12:07;;;;;;;0.00;0.00;;;-6.60;99.90;;;;;;5053024;28;20572;-62
2022/12/17 19:14:33;;;;;;;0.00;0.00;;;-6.60;99.90;;;;;;5050134;28;20177;-63
2022/12/17 19:16:59;;;;;;;0.20;0.20;;;-6.60;99.90;;;;;;5050765;28;20288;-62
2022/12/17 19:19:25;;;;;;;0.60;0.60;;;-6.70;99.90;;;;;;5050592;28;20684;-62
2022/12/17 19:21:53;;;;;;;0.10;0.10;;;-6.70;99.90;;;;;;5051735;28;20177;-62
2022/12/17 19:24:20;;;;;;;0.70;0.70;;;-6.70;99.90;;;;;;5050516;28;20180;-62
2022/12/17 19:26:46;;;;;;;0.37;0.37;;;-6.80;99.90;;;;;;5051932;28;20240;-62
2022/12/17 19:29:13;;;;;;;0.63;0.50;;;-6.70;99.90;;;;;;5051861;28;20208;-63
2022/12/17 19:31:39;;;;;;;1.60;0.80;;;-6.70;99.90;;;;;;5051668;28;20633;-62
2022/12/17 19:34:08;;;;;;;0.83;0.83;;;-6.70;99.90;;;;;;5051697;28;20180;-62
2022/12/17 19:36:35;;;;;;;0.10;0.10;;;-6.70;99.90;;;;;;5050992;28;20188;-62
2022/12/17 19:39:04;;;;;;;0.30;0.30;;;-6.80;99.90;;;;;;5050890;28;20178;-64
2022/12/17 19:41:31;;;;;;;2.03;1.03;;;-6.80;99.90;;;;;;5050799;28;20174;-64
2022/12/17 19:43:59;;;;;;;0.27;0.27;;;-6.80;99.90;;;;;;5051226;28;20625;-63
2022/12/17 19:46:25;;;;;;;0.50;0.50;;;-6.80;99.90;;;;;;5051143;28;20213;-61
2022/12/17 19:48:52;;;;;;;0.40;0.40;;;-6.80;99.90;;;;;;5050645;28;20190;-63
2022/12/17 19:51:21;;;;;;;0.73;0.73;;;-6.80;99.90;;;;;;5051296;28;20193;-60
2022/12/17 19:53:48;;;;;;;3.10;0.80;;;-6.80;99.90;;;;;;5051160;28;20184;-60
2022/12/17 19:56:25;;;;;;;0.40;0.40;;;-6.80;99.90;;;;;;5050772;28;20184;-65
2022/12/17 19:58:54;;;;;;;0.67;0.67;;;-6.80;99.90;;;;;;5050761;28;20185;-60
2022/12/17 20:01:28;;;;;;;1.03;0.53;;;-6.80;99.90;;;;;;5051405;28;20177;-66
2022/12/17 20:03:54;;;;;;;0.10;0.10;;;-6.90;99.90;;;;;;5050991;28;20177;-63
2022/12/17 20:06:22;;;;;;;0.00;0.00;;;-6.90;99.90;;;;;;5049994;28;20236;-66
2022/12/17 20:08:47;;;;;;;0.70;0.70;;;-6.90;99.90;;;;;;5064699;28;20745;-60
2022/12/17 20:11:32;;;;;;;0.27;0.23;;;-7.00;99.90;;;;;;5050242;28;20260;-61
2022/12/17 20:13:59;;;;;;;0.17;0.17;;;-7.00;99.90;;;;;;5054886;28;20180;-60
2022/12/17 20:16:25;;;;;;;0.63;0.63;;;-7.00;99.90;;;;;;5052439;28;20319;-61
2022/12/17 20:18:51;;;;;;;1.60;0.90;;;-7.00;99.90;;;;;;5054017;28;20542;-61
2022/12/17 20:21:17;;;;;;;0.30;0.30;;;-7.00;99.90;;;;;;5054105;28;20240;-61
2022/12/17 20:23:46;;;;;;;0.57;0.57;;;-7.00;99.90;;;;;;5054595;28;20181;-61
2022/12/17 20:26:11;;;;;;;0.30;0.30;;;-7.00;99.90;;;;;;5054476;28;20205;-60
2022/12/17 20:28:37;;;;;;;0.80;0.80;;;-7.00;99.90;;;;;;5054403;28;20703;-61
2022/12/17 20:31:04;;;;;;;0.20;0.20;;;-7.00;99.90;;;;;;5053562;28;20268;-61
2022/12/17 20:33:30;;;;;;;0.73;0.60;;;-7.00;99.90;;;;;;5041814;28;20178;-61
2022/12/17 20:36:05;;;;;;;1.03;0.93;;;-7.00;99.90;;;;;;5034688;28;20656;-61
2022/12/17 20:38:31;;;;;;;0.43;0.43;;;-7.10;99.90;;;;;;5054051;28;20177;-62
2022/12/17 20:40:57;;;;;;;0.20;0.20;;;-7.10;99.90;;;;;;5054054;28;20184;-61
2022/12/17 20:43:22;;;;;;;0.00;0.00;;;-7.10;99.90;;;;;;5053639;28;20173;-61
2022/12/17 20:45:50;;;;;;;0.20;0.20;;;-7.10;99.90;;;;;;5053297;28;20501;-61
2022/12/17 20:48:16;;;;;;;0.50;0.50;;;-7.10;99.90;;;;;;5054401;28;20195;-61
2022/12/17 20:50:43;;;;;;;0.87;0.67;;;-7.20;99.90;;;;;;5054124;28;20177;-61
2022/12/17 20:53:09;;;;;;;0.00;0.00;;;-7.20;99.90;;;;;;5054358;28;20178;-62
2022/12/17 20:55:35;;;;;;;0.33;0.33;;;-7.20;99.90;;;;;;5053526;28;20192;-60
2022/12/17 20:58:00;;;;;;;0.63;0.63;;;-7.20;99.90;;;;;;5053337;28;20208;-62
2022/12/17 21:00:26;;;;;;;0.57;0.57;;;-7.20;99.90;;;;;;5054132;28;20177;-62
2022/12/17 21:02:51;;;;;;;0.87;0.80;;;-7.20;99.90;;;;;;5054215;28;20181;-61
2022/12/17 21:05:17;;;;;;;0.20;0.20;;;-7.20;99.90;;;;;;5053573;28;20181;-61
2022/12/17 21:07:43;;;;;;;0.77;0.77;;;-7.20;99.90;;;;;;5053644;28;20259;-61
2022/12/17 21:10:09;;;;;;;1.07;0.93;;;-7.20;99.90;;;;;;5054001;28;20165;-61
2022/12/17 21:15:19;;;;;;;1.43;0.87;;;-7.10;99.90;;;;;;5053728;28;20184;-61
2022/12/17 21:17:45;;;;;;;0.43;0.43;;;-7.20;99.90;;;;;;5053759;28;20181;-61
2022/12/17 21:20:10;;;;;;;0.83;0.83;;;-7.20;99.90;;;;;;5053047;28;20181;-61
2022/12/17 21:22:36;;;;;;;0.63;0.40;;;-7.30;99.90;;;;;;5052961;28;20645;-61
2022/12/17 21:25:02;;;;;;;0.20;0.20;;;-7.30;99.90;;;;;;5053829;28;20205;-61
2022/12/17 21:27:28;;;;;;;0.93;0.83;;;-7.30;99.90;;;;;;5053541;28;20240;-62
2022/12/17 21:29:54;;;;;;;0.00;0.00;;;-7.30;99.90;;;;;;5053565;28;20270;-61
2022/12/17 21:32:19;;;;;;;0.27;0.27;;;-7.30;99.90;;;;;;5051274;28;20186;-62
2022/12/17 21:34:45;;;;;;;0.10;0.10;;;-7.30;99.90;;;;;;5033607;28;20178;-61
2022/12/17 21:37:10;;;;;;;0.50;0.50;;;-7.30;99.90;;;;;;5033518;28;20178;-61
2022/12/17 21:39:36;;;;;;;0.47;0.47;;;-7.30;99.90;;;;;;5050410;28;20205;-61
2022/12/17 21:44:46;;;;;;;1.60;0.73;;;-7.20;99.90;;;;;;5052852;28;20242;-62
2022/12/17 21:47:11;;;;;;;0.20;0.20;;;-7.20;99.90;;;;;;5052838;28;20225;-63
2022/12/17 21:49:37;;;;;;;0.40;0.40;;;-7.20;99.90;;;;;;5052747;28;20251;-63
2022/12/17 21:52:02;;;;;;;0.00;0.00;;;-7.20;99.90;;;;;;5053087;28;20185;-63
2022/12/17 21:54:28;;;;;;;0.10;0.10;;;-7.20;99.90;;;;;;5052993;28;20537;-63
2022/12/17 21:56:54;;;;;;;0.87;0.60;;;-7.20;99.90;;;;;;5052672;28;20181;-62
2022/12/17 21:59:19;;;;;;;0.20;0.20;;;-7.30;99.90;;;;;;5053075;28;20185;-62
2022/12/17 22:01:45;;;;;;;1.10;1.10;;;-7.30;99.90;;;;;;5052718;28;20185;-62
2022/12/17 22:04:11;;;;;;;0.00;0.00;;;-7.30;99.90;;;;;;5052760;28;20641;-62
2022/12/17 22:06:37;;;;;;;0.47;0.47;;;-7.30;99.90;;;;;;5051764;28;20224;-63
2022/12/17 22:09:04;;;;;;;0.50;0.50;;;-7.30;99.90;;;;;;5051746;28;20186;-62
2022/12/17 22:11:30;;;;;;;0.87;0.87;;;-7.30;99.90;;;;;;5052507;28;20251;-61
2022/12/17 22:14:02;;;;;;;0.20;0.20;;;-7.30;99.90;;;;;;5052685;28;20181;-60
2022/12/17 22:16:47;;;;;;;0.30;0.27;;;-7.40;99.90;;;;;;5052690;28;20185;-63
2022/12/17 22:19:16;;;;;;;0.47;0.47;;;-7.40;99.90;;;;;;5052582;28;20645;-61
2022/12/17 22:21:43;;;;;;;0.03;0.03;;;-7.40;99.90;;;;;;5052670;28;20256;-61
2022/12/17 22:24:17;;;;;;;0.63;0.63;;;-7.40;99.90;;;;;;5052807;28;20244;-61
2022/12/17 22:26:43;;;;;;;0.10;0.10;;;-7.40;99.90;;;;;;5052329;28;20240;-61
2022/12/17 22:29:08;;;;;;;0.10;0.10;;;-7.30;99.90;;;;;;5052523;28;20173;-61
2022/12/17 22:34:18;;;;;;;0.10;0.10;;;-7.30;99.90;;;;;;5033502;28;20212;-61
2022/12/17 22:36:44;;;;;;;0.40;0.40;;;-7.40;99.90;;;;;;5032451;28;20257;-61
2022/12/17 22:39:12;;;;;;;0.10;0.10;;;-7.40;99.90;;;;;;5048321;28;20652;-60
2022/12/17 22:44:23;;;;;;;0.37;0.37;;;-7.50;99.90;;;;;;5050698;28;20192;-61
2022/12/17 22:46:48;;;;;;;0.40;0.40;;;-7.50;99.90;;;;;;5050591;28;20206;-60
2022/12/17 22:49:14;;;;;;;0.40;0.40;;;-7.50;99.90;;;;;;5051172;28;20187;-60
2022/12/17 22:51:41;;;;;;;0.07;0.07;;;-7.50;99.90;;;;;;5050523;28;20235;-60
2022/12/17 22:54:07;;;;;;;2.10;1.10;;;-7.60;99.90;;;;;;5051813;28;20188;-60
2022/12/17 22:56:34;;;;;;;1.67;0.73;;;-7.60;99.90;;;;;;5051903;28;20603;-60
2022/12/17 22:59:00;;;;;;;0.00;0.00;;;-7.60;99.90;;;;;;5051908;28;20178;-60
2022/12/17 23:01:26;;;;;;;0.00;0.00;;;-7.60;99.90;;;;;;5051646;28;20263;-60
2022/12/17 23:03:56;;;;;;;0.00;0.00;;;-7.60;99.90;;;;;;5051532;28;20260;-60
2022/12/17 23:06:22;;;;;;;0.97;0.97;;;-7.60;99.90;;;;;;5051354;28;20758;-60
2022/12/17 23:08:47;;;;;;;0.77;0.77;;;-7.60;99.90;;;;;;5051265;28;20655;-60
2022/12/17 23:11:20;;;;;;;2.20;0.90;;;-7.60;99.90;;;;;;5050139;28;20239;-60
2022/12/17 23:13:45;;;;;;;0.30;0.30;;;-7.70;99.90;;;;;;5051526;28;20186;-60
2022/12/17 23:16:12;;;;;;;0.23;0.23;;;-7.70;99.90;;;;;;5050928;28;20184;-60
2022/12/17 23:18:38;;;;;;;0.77;0.77;;;-7.70;99.90;;;;;;5051562;28;20185;-60
2022/12/17 23:21:10;;;;;;;0.53;0.53;;;-7.70;99.90;;;;;;5051585;28;20672;-60
2022/12/17 23:23:36;;;;;;;1.07;0.97;;;-7.70;99.90;;;;;;5051583;28;20545;-60
2022/12/17 23:26:20;;;;;;;0.07;0.07;;;-7.70;99.90;;;;;;5051252;28;20201;-60
2022/12/17 23:28:45;;;;;;;0.00;0.00;;;-7.70;99.90;;;;;;5036216;28;20185;-60
2022/12/17 23:31:18;;;;;;;0.00;0.00;;;-7.70;99.90;;;;;;5051256;28;20546;-60
2022/12/17 23:33:45;;;;;;;0.10;0.10;;;-7.80;99.90;;;;;;5044252;28;20190;-60
2022/12/17 23:36:19;;;;;;;0.20;0.20;;;-7.80;99.90;;;;;;5047552;28;20178;-60
2022/12/17 23:38:45;;;;;;;0.23;0.23;;;-7.80;99.90;;;;;;5051090;28;20219;-60
2022/12/17 23:41:24;;;;;;;1.17;0.77;;;-7.80;99.90;;;;;;5050007;28;20180;-60
2022/12/17 23:43:50;;;;;;;1.23;0.87;;;-7.90;99.90;;;;;;5051414;28;20213;-60
2022/12/17 23:46:16;;;;;;;0.10;0.10;;;-7.90;99.90;;;;;;5051090;28;20268;-60
2022/12/17 23:48:43;;;;;;;0.20;0.20;;;-7.90;99.90;;;;;;5054757;28;20561;-60
2022/12/17 23:51:10;;;;;;;0.00;0.00;;;-7.90;99.90;;;;;;5053385;28;20262;-60
2022/12/17 23:53:36;;;;;;;0.20;0.20;;;-7.90;99.90;;;;;;5053874;28;20204;-60
2022/12/17 23:56:10;;;;;;;0.70;0.70;;;-7.90;99.90;;;;;;5053963;28;20633;-60
2022/12/17 23:58:36;;;;;;;1.80;0.60;;;-7.80;99.90;;;;;;5051603;28;20299;-60
